Time,TemperatureF,DewpointF,PressureIn,WindDirection,WindDirectionDegrees,WindSpeedMPH,WindSpeedGustMPH,Humidity,HourlyPrecipIn,Conditions,Clouds,dailyrainin,SoftwareType,DateUTC
2013-02-26 00:00:00,32.9,28.3,30.26,North,11,0.0,0.0,83,0.00,,,0.00,Wunderground v.1.15,2013-02-26 05:00:00,
2013-02-26 00:02:00,32.9,28.3,30.27,North,11,0.0,0.0,83,0.00,,,0.00,Wunderground v.1.15,2013-02-26 05:02:00,
2013-02-26 00:04:00,32.8,28.2,30.27,North,11,0.0,0.0,83,0.00,,,0.00,Wunderground v.1.15,2013-02-26 05:04:00,
2013-02-26 00:10:00,32.6,28.0,30.26,North,11,0.0,0.0,83,0.00,,,0.00,Wunderground v.1.15,2013-02-26 05:10:00,
2013-02-26 00:14:00,32.5,27.9,30.25,North,11,0.0,0.0,83,0.00,,,0.00,Wunderground v.1.15,2013-02-26 05:14:00,
2013-02-26 00:20:00,32.1,27.8,30.25,North,11,0.0,0.0,84,0.00,,,0.00,Wunderground v.1.15,2013-02-26 05:20:00,
2013-02-26 00:26:00,31.9,27.9,30.26,North,11,0.0,0.0,85,0.00,,,0.00,Wunderground v.1.15,2013-02-26 05:26:00,
2013-02-26 00:32:00,31.7,27.7,30.26,North,11,0.0,0.0,85,0.00,,,0.00,Wunderground v.1.15,2013-02-26 05:32:00,
2013-02-26 00:38:00,31.4,27.4,30.26,North,11,0.0,0.0,85,0.00,,,0.00,Wunderground v.1.15,2013-02-26 05:38:00,
2013-02-26 00:44:00,31.2,27.2,30.25,North,11,0.0,0.0,85,0.00,,,0.00,Wunderground v.1.15,2013-02-26 05:44:00,
2013-02-26 00:50:00,31.0,27.3,30.26,North,11,0.0,0.0,86,0.00,,,0.00,Wunderground v.1.15,2013-02-26 05:50:00,
2013-02-26 00:56:00,30.8,27.1,30.26,North,11,0.0,0.0,86,0.00,,,0.00,Wunderground v.1.15,2013-02-26 05:56:00,
2013-02-26 01:02:00,30.7,27.3,30.26,North,11,0.0,0.0,87,0.00,,,0.00,Wunderground v.1.15,2013-02-26 06:02:00,
2013-02-26 01:08:00,30.6,27.2,30.27,North,11,0.0,0.0,87,0.00,,,0.00,Wunderground v.1.15,2013-02-26 06:08:00,
2013-02-26 01:14:00,30.5,27.1,30.28,North,11,0.0,0.0,87,0.00,,,0.00,Wunderground v.1.15,2013-02-26 06:14:00,
2013-02-26 01:20:00,30.5,27.4,30.29,North,11,0.0,0.0,88,0.00,,,0.00,Wunderground v.1.15,2013-02-26 06:20:00,
2013-02-26 01:26:00,30.5,27.4,30.28,North,11,0.0,1.0,88,0.00,,,0.00,Wunderground v.1.15,2013-02-26 06:26:00,
2013-02-26 01:32:00,30.5,27.4,30.28,North,11,0.0,1.0,88,0.00,,,0.00,Wunderground v.1.15,2013-02-26 06:32:00,
2013-02-26 01:38:00,30.6,27.5,30.29,North,11,0.0,2.0,88,0.00,,,0.00,Wunderground v.1.15,2013-02-26 06:38:00,
2013-02-26 01:44:00,30.7,27.6,30.30,North,11,1.0,1.0,88,0.00,,,0.00,Wunderground v.1.15,2013-02-26 06:44:00,
2013-02-26 01:50:00,30.9,27.8,30.30,WNW,288,1.0,1.0,88,0.00,,,0.00,Wunderground v.1.15,2013-02-26 06:50:00,
2013-02-26 01:56:00,31.1,27.7,30.30,WNW,288,1.0,1.0,87,0.00,,,0.00,Wunderground v.1.15,2013-02-26 06:56:00,
2013-02-26 02:02:00,31.2,27.8,30.30,WNW,288,0.0,0.0,87,0.00,,,0.00,Wunderground v.1.15,2013-02-26 07:02:00,
2013-02-26 02:08:00,31.2,27.8,30.29,WNW,288,0.0,0.0,87,0.00,,,0.00,Wunderground v.1.15,2013-02-26 07:08:00,
2013-02-26 02:14:00,31.1,27.7,30.30,WNW,288,0.0,1.0,87,0.00,,,0.00,Wunderground v.1.15,2013-02-26 07:14:00,
2013-02-26 02:20:00,31.2,27.8,30.30,WNW,288,0.0,0.0,87,0.00,,,0.00,Wunderground v.1.15,2013-02-26 07:20:00,
2013-02-26 02:26:00,31.2,27.5,30.29,WNW,288,0.0,0.0,86,0.00,,,0.00,Wunderground v.1.15,2013-02-26 07:26:00,
2013-02-26 02:32:00,31.3,27.6,30.29,WNW,288,0.0,0.0,86,0.00,,,0.00,Wunderground v.1.15,2013-02-26 07:32:00,
2013-02-26 02:38:00,31.2,27.5,30.29,WNW,288,0.0,0.0,86,0.00,,,0.00,Wunderground v.1.15,2013-02-26 07:38:00,
2013-02-26 02:44:00,31.0,27.3,30.29,WNW,288,0.0,0.0,86,0.00,,,0.00,Wunderground v.1.15,2013-02-26 07:44:00,
2013-02-26 02:50:00,30.8,27.1,30.29,WNW,288,0.0,0.0,86,0.00,,,0.00,Wunderground v.1.15,2013-02-26 07:50:00,
2013-02-26 02:56:00,30.8,27.4,30.29,WNW,288,0.0,0.0,87,0.00,,,0.00,Wunderground v.1.15,2013-02-26 07:56:00,
2013-02-26 03:02:00,30.6,27.2,30.29,WNW,288,0.0,0.0,87,0.00,,,0.00,Wunderground v.1.15,2013-02-26 08:02:00,
2013-02-26 03:08:00,30.4,27.0,30.29,WNW,288,0.0,0.0,87,0.00,,,0.00,Wunderground v.1.15,2013-02-26 08:08:00,
2013-02-26 03:14:00,30.2,26.8,30.29,WNW,288,0.0,0.0,87,0.00,,,0.00,Wunderground v.1.15,2013-02-26 08:14:00,
2013-02-26 03:20:00,30.0,26.6,30.29,WNW,288,0.0,0.0,87,0.00,,,0.00,Wunderground v.1.15,2013-02-26 08:20:00,
2013-02-26 03:26:00,29.8,26.4,30.29,WNW,288,0.0,0.0,87,0.00,,,0.00,Wunderground v.1.15,2013-02-26 08:26:00,
2013-02-26 03:32:00,29.7,26.6,30.29,WNW,288,0.0,0.0,88,0.00,,,0.00,Wunderground v.1.15,2013-02-26 08:32:00,
2013-02-26 03:38:00,29.6,26.5,30.29,WNW,288,0.0,0.0,88,0.00,,,0.00,Wunderground v.1.15,2013-02-26 08:38:00,
2013-02-26 03:44:00,29.5,26.7,30.29,WNW,288,0.0,0.0,89,0.00,,,0.00,Wunderground v.1.15,2013-02-26 08:44:00,
2013-02-26 03:50:00,29.5,26.7,30.30,WNW,288,0.0,1.0,89,0.00,,,0.00,Wunderground v.1.15,2013-02-26 08:50:00,
2013-02-26 03:56:00,29.6,26.8,30.30,WNW,288,0.0,1.0,89,0.00,,,0.00,Wunderground v.1.15,2013-02-26 08:56:00,
2013-02-26 04:02:00,29.5,26.7,30.30,WNW,288,0.0,0.0,89,0.00,,,0.00,Wunderground v.1.15,2013-02-26 09:02:00,
2013-02-26 04:08:00,29.3,26.5,30.30,WNW,288,0.0,0.0,89,0.00,,,0.00,Wunderground v.1.15,2013-02-26 09:08:00,
2013-02-26 04:14:00,29.1,26.3,30.30,WNW,288,0.0,0.0,89,0.00,,,0.00,Wunderground v.1.15,2013-02-26 09:14:00,
2013-02-26 04:20:00,28.9,26.1,30.29,WNW,288,0.0,0.0,89,0.00,,,0.00,Wunderground v.1.15,2013-02-26 09:20:00,
2013-02-26 04:26:00,28.8,26.0,30.29,WNW,288,0.0,0.0,89,0.00,,,0.00,Wunderground v.1.15,2013-02-26 09:26:00,
2013-02-26 04:32:00,28.8,26.2,30.29,WNW,288,0.0,0.0,90,0.00,,,0.00,Wunderground v.1.15,2013-02-26 09:32:00,
2013-02-26 04:38:00,28.8,26.2,30.29,WNW,288,0.0,0.0,90,0.00,,,0.00,Wunderground v.1.15,2013-02-26 09:38:00,
2013-02-26 04:44:00,28.7,26.1,30.28,WNW,288,0.0,0.0,90,0.00,,,0.00,Wunderground v.1.15,2013-02-26 09:44:00,
2013-02-26 04:50:00,28.6,26.0,30.29,WNW,288,0.0,0.0,90,0.00,,,0.00,Wunderground v.1.15,2013-02-26 09:50:00,
2013-02-26 04:56:00,28.5,25.9,30.29,WNW,288,0.0,0.0,90,0.00,,,0.00,Wunderground v.1.15,2013-02-26 09:56:00,
2013-02-26 05:02:00,28.6,26.3,30.29,WNW,288,0.0,0.0,91,0.00,,,0.00,Wunderground v.1.15,2013-02-26 10:02:00,
2013-02-26 05:08:00,28.5,25.9,30.29,WNW,288,0.0,0.0,90,0.00,,,0.00,Wunderground v.1.15,2013-02-26 10:08:00,
2013-02-26 05:14:00,28.4,26.1,30.29,WNW,288,0.0,0.0,91,0.00,,,0.00,Wunderground v.1.15,2013-02-26 10:14:00,
2013-02-26 05:20:00,28.3,26.0,30.28,WNW,288,0.0,0.0,91,0.00,,,0.00,Wunderground v.1.15,2013-02-26 10:20:00,
2013-02-26 05:26:00,28.2,25.9,30.28,WNW,288,0.0,0.0,91,0.00,,,0.00,Wunderground v.1.15,2013-02-26 10:26:00,
2013-02-26 05:32:00,28.1,25.8,30.27,WNW,288,0.0,0.0,91,0.00,,,0.00,Wunderground v.1.15,2013-02-26 10:32:00,
2013-02-26 05:38:00,28.1,26.1,30.27,WNW,288,0.0,0.0,92,0.00,,,0.00,Wunderground v.1.15,2013-02-26 10:38:00,
2013-02-26 05:44:00,28.0,25.7,30.27,WNW,288,0.0,0.0,91,0.00,,,0.00,Wunderground v.1.15,2013-02-26 10:44:00,
2013-02-26 05:50:00,28.0,25.7,30.27,WNW,288,0.0,0.0,91,0.00,,,0.00,Wunderground v.1.15,2013-02-26 10:50:00,
2013-02-26 05:56:00,28.0,26.0,30.28,WNW,288,0.0,0.0,92,0.00,,,0.00,Wunderground v.1.15,2013-02-26 10:56:00,
2013-02-26 06:02:00,27.9,25.6,30.28,WNW,288,0.0,0.0,91,0.00,,,0.00,Wunderground v.1.15,2013-02-26 11:02:00,
2013-02-26 06:08:00,27.8,25.5,30.28,WNW,288,0.0,0.0,91,0.00,,,0.00,Wunderground v.1.15,2013-02-26 11:08:00,
2013-02-26 06:14:00,27.6,25.3,30.28,WNW,288,0.0,0.0,91,0.00,,,0.00,Wunderground v.1.15,2013-02-26 11:14:00,
2013-02-26 06:20:00,27.4,25.1,30.28,WNW,288,0.0,0.0,91,0.00,,,0.00,Wunderground v.1.15,2013-02-26 11:20:00,
2013-02-26 06:26:00,27.4,25.4,30.28,WNW,288,0.0,0.0,92,0.00,,,0.00,Wunderground v.1.15,2013-02-26 11:26:00,
2013-02-26 06:32:00,27.3,25.3,30.28,WNW,288,0.0,0.0,92,0.00,,,0.00,Wunderground v.1.15,2013-02-26 11:32:00,
2013-02-26 06:38:00,27.2,25.2,30.27,WNW,288,0.0,0.0,92,0.00,,,0.00,Wunderground v.1.15,2013-02-26 11:38:00,
2013-02-26 06:44:00,27.2,25.2,30.27,WNW,288,0.0,0.0,92,0.00,,,0.00,Wunderground v.1.15,2013-02-26 11:44:00,
2013-02-26 06:50:00,27.2,25.2,30.28,WNW,288,0.0,0.0,92,0.00,,,0.00,Wunderground v.1.15,2013-02-26 11:50:00,
2013-02-26 06:56:00,27.3,25.3,30.28,WNW,288,0.0,0.0,92,0.00,,,0.00,Wunderground v.1.15,2013-02-26 11:56:00,
2013-02-26 07:02:00,27.3,25.5,30.29,WNW,288,0.0,0.0,93,0.00,,,0.00,Wunderground v.1.15,2013-02-26 12:02:00,
2013-02-26 07:08:00,27.4,25.6,30.30,WNW,288,0.0,0.0,93,0.00,,,0.00,Wunderground v.1.15,2013-02-26 12:08:00,
2013-02-26 07:14:00,27.8,26.0,30.30,WNW,288,0.0,0.0,93,0.00,,,0.00,Wunderground v.1.15,2013-02-26 12:14:00,
2013-02-26 07:20:00,28.0,26.2,30.31,WNW,288,0.0,0.0,93,0.00,,,0.00,Wunderground v.1.15,2013-02-26 12:20:00,
2013-02-26 07:26:00,28.2,26.4,30.31,WNW,288,0.0,0.0,93,0.00,,,0.00,Wunderground v.1.15,2013-02-26 12:26:00,
2013-02-26 07:32:00,28.4,26.6,30.31,WNW,288,0.0,0.0,93,0.00,,,0.00,Wunderground v.1.15,2013-02-26 12:32:00,
2013-02-26 07:38:00,28.7,26.9,30.32,WNW,288,0.0,0.0,93,0.00,,,0.00,Wunderground v.1.15,2013-02-26 12:38:00,
2013-02-26 07:44:00,29.1,27.6,30.32,WNW,288,0.0,0.0,94,0.00,,,0.00,Wunderground v.1.15,2013-02-26 12:44:00,
2013-02-26 07:50:00,29.7,28.2,30.33,WNW,288,0.0,0.0,94,0.00,,,0.00,Wunderground v.1.15,2013-02-26 12:50:00,
2013-02-26 07:56:00,30.1,28.6,30.33,WNW,288,0.0,0.0,94,0.00,,,0.00,Wunderground v.1.15,2013-02-26 12:56:00,
2013-02-26 08:02:00,30.6,29.1,30.33,WNW,288,0.0,0.0,94,0.00,,,0.00,Wunderground v.1.15,2013-02-26 13:02:00,
2013-02-26 08:08:00,31.2,29.4,30.33,WNW,288,0.0,0.0,93,0.00,,,0.00,Wunderground v.1.15,2013-02-26 13:08:00,
2013-02-26 08:14:00,31.7,29.9,30.33,WNW,288,0.0,0.0,93,0.00,,,0.00,Wunderground v.1.15,2013-02-26 13:14:00,
2013-02-26 08:20:00,32.4,30.6,30.32,WNW,288,0.0,0.0,93,0.00,,,0.00,Wunderground v.1.15,2013-02-26 13:20:00,
2013-02-26 08:26:00,32.9,30.8,30.32,WNW,288,0.0,0.0,92,0.00,,,0.00,Wunderground v.1.15,2013-02-26 13:26:00,
2013-02-26 08:32:00,33.6,31.3,30.32,WNW,288,0.0,0.0,91,0.00,,,0.00,Wunderground v.1.15,2013-02-26 13:32:00,
2013-02-26 08:38:00,34.3,31.9,30.32,WNW,288,0.0,0.0,91,0.00,,,0.00,Wunderground v.1.15,2013-02-26 13:38:00,
2013-02-26 08:44:00,35.1,32.5,30.32,WNW,288,0.0,0.0,90,0.00,,,0.00,Wunderground v.1.15,2013-02-26 13:44:00,
2013-02-26 08:50:00,35.9,33.0,30.32,NNW,344,0.0,0.0,89,0.00,,,0.00,Wunderground v.1.15,2013-02-26 13:50:00,
2013-02-26 08:56:00,36.6,33.4,30.32,NNW,344,0.0,1.0,88,0.00,,,0.00,Wunderground v.1.15,2013-02-26 13:56:00,
2013-02-26 09:02:00,37.2,33.7,30.32,NNW,346,1.0,1.0,87,0.00,,,0.00,Wunderground v.1.15,2013-02-26 14:02:00,
2013-02-26 09:08:00,37.8,34.0,30.32,NNW,346,0.0,1.0,86,0.00,,,0.00,Wunderground v.1.15,2013-02-26 14:08:00,
2013-02-26 09:14:00,38.4,34.6,30.32,NNW,346,1.0,2.0,86,0.00,,,0.00,Wunderground v.1.15,2013-02-26 14:14:00,
2013-02-26 09:20:00,39.1,35.0,30.32,North,355,1.0,2.0,85,0.00,,,0.00,Wunderground v.1.15,2013-02-26 14:20:00,
2013-02-26 09:26:00,39.7,35.3,30.31,NNE,27,2.0,2.0,84,0.00,,,0.00,Wunderground v.1.15,2013-02-26 14:26:00,
2013-02-26 09:32:00,40.4,35.9,30.31,ESE,110,2.0,2.0,84,0.00,,,0.00,Wunderground v.1.15,2013-02-26 14:32:00,
2013-02-26 09:38:00,41.1,36.3,30.31,East,79,2.0,4.0,83,0.00,,,0.00,Wunderground v.1.15,2013-02-26 14:38:00,
2013-02-26 09:44:00,41.8,36.7,30.31,East,86,2.0,2.0,82,0.00,,,0.00,Wunderground v.1.15,2013-02-26 14:44:00,
2013-02-26 09:50:00,42.4,37.0,30.31,NE,40,2.0,5.0,81,0.00,,,0.00,Wunderground v.1.15,2013-02-26 14:50:00,
2013-02-26 09:56:00,42.8,37.4,30.31,ENE,71,1.0,5.0,81,0.00,,,0.00,Wunderground v.1.15,2013-02-26 14:56:00,
2013-02-26 10:02:00,43.1,37.3,30.32,NNE,24,1.0,1.0,80,0.00,,,0.00,Wunderground v.1.15,2013-02-26 15:02:00,
2013-02-26 10:08:00,43.1,37.0,30.32,NE,54,2.0,4.0,79,0.00,,,0.00,Wunderground v.1.15,2013-02-26 15:08:00,
2013-02-26 10:14:00,42.9,37.5,30.32,ENE,67,3.0,3.0,81,0.00,,,0.00,Wunderground v.1.15,2013-02-26 15:14:00,
2013-02-26 10:20:00,42.9,37.2,30.32,SE,132,3.0,3.0,80,0.00,,,0.00,Wunderground v.1.15,2013-02-26 15:20:00,
2013-02-26 10:26:00,43.1,37.7,30.32,ESE,120,3.0,5.0,81,0.00,,,0.00,Wunderground v.1.15,2013-02-26 15:26:00,
2013-02-26 10:32:00,43.0,37.3,30.32,ESE,109,3.0,4.0,80,0.00,,,0.00,Wunderground v.1.15,2013-02-26 15:32:00,
2013-02-26 10:38:00,42.9,37.8,30.32,ENE,66,3.0,7.0,82,0.00,,,0.00,Wunderground v.1.15,2013-02-26 15:38:00,
2013-02-26 10:44:00,42.8,37.7,30.32,East,92,3.0,3.0,82,0.00,,,0.00,Wunderground v.1.15,2013-02-26 15:44:00,
2013-02-26 10:50:00,43.1,37.3,30.32,ESE,115,3.0,3.0,80,0.00,,,0.00,Wunderground v.1.15,2013-02-26 15:50:00,
2013-02-26 10:56:00,43.3,37.5,30.32,SSE,168,3.0,4.0,80,0.00,,,0.00,Wunderground v.1.15,2013-02-26 15:56:00,
2013-02-26 11:02:00,43.5,37.7,30.32,SE,140,4.0,4.0,80,0.00,,,0.00,Wunderground v.1.15,2013-02-26 16:02:00,
2013-02-26 11:08:00,43.8,37.7,30.32,East,96,3.0,4.0,79,0.00,,,0.00,Wunderground v.1.15,2013-02-26 16:08:00,
2013-02-26 11:14:00,43.8,37.4,30.32,ESE,108,3.0,4.0,78,0.00,,,0.00,Wunderground v.1.15,2013-02-26 16:14:00,
2013-02-26 11:20:00,44.0,37.6,30.32,East,92,3.0,5.0,78,0.00,,,0.00,Wunderground v.1.15,2013-02-26 16:20:00,
2013-02-26 11:26:00,44.3,37.5,30.31,East,99,3.0,5.0,77,0.00,,,0.00,Wunderground v.1.15,2013-02-26 16:26:00,
2013-02-26 11:32:00,44.4,36.6,30.31,ESE,117,3.0,5.0,74,0.00,,,0.00,Wunderground v.1.15,2013-02-26 16:32:00,
2013-02-26 11:38:00,44.3,36.9,30.30,East,94,3.0,5.0,75,0.00,,,0.00,Wunderground v.1.15,2013-02-26 16:38:00,
2013-02-26 11:46:00,44.4,37.0,30.30,SSW,204,3.0,5.0,75,0.00,,,0.00,Wunderground v.1.15,2013-02-26 16:46:00,
2013-02-26 11:52:00,44.3,36.5,30.30,SE,130,4.0,7.0,74,0.00,,,0.00,Wunderground v.1.15,2013-02-26 16:52:00,
2013-02-26 11:58:00,44.6,36.8,30.30,SSE,153,5.0,9.0,74,0.00,,,0.00,Wunderground v.1.15,2013-02-26 16:58:00,
2013-02-26 12:04:00,44.5,36.7,30.29,SSE,163,5.0,11.0,74,0.00,,,0.00,Wunderground v.1.15,2013-02-26 17:04:00,
2013-02-26 12:10:00,44.5,36.7,30.29,SE,140,5.0,5.0,74,0.00,,,0.00,Wunderground v.1.15,2013-02-26 17:10:00,
2013-02-26 12:16:00,44.6,36.8,30.30,ENE,77,4.0,7.0,74,0.00,,,0.00,Wunderground v.1.15,2013-02-26 17:16:00,
2013-02-26 12:22:00,44.4,36.6,30.30,East,101,5.0,6.0,74,0.00,,,0.00,Wunderground v.1.15,2013-02-26 17:22:00,
2013-02-26 12:28:00,43.8,36.0,30.30,ESE,117,5.0,6.0,74,0.00,,,0.00,Wunderground v.1.15,2013-02-26 17:28:00,
2013-02-26 12:34:00,43.7,36.6,30.30,SE,133,5.0,6.0,76,0.00,,,0.00,Wunderground v.1.15,2013-02-26 17:34:00,
2013-02-26 12:40:00,43.7,36.3,30.30,East,82,4.0,4.0,75,0.00,,,0.00,Wunderground v.1.15,2013-02-26 17:40:00,
2013-02-26 12:46:00,43.9,36.5,30.29,East,101,4.0,6.0,75,0.00,,,0.00,Wunderground v.1.15,2013-02-26 17:46:00,
2013-02-26 12:52:00,44.0,36.6,30.29,ENE,76,3.0,4.0,75,0.00,,,0.00,Wunderground v.1.15,2013-02-26 17:52:00,
2013-02-26 12:58:00,44.0,36.6,30.28,East,101,4.0,7.0,75,0.00,,,0.00,Wunderground v.1.15,2013-02-26 17:58:00,
2013-02-26 13:04:00,43.9,36.1,30.28,SE,125,4.0,6.0,74,0.00,,,0.00,Wunderground v.1.15,2013-02-26 18:04:00,
2013-02-26 13:10:00,43.9,36.5,30.29,ESE,117,4.0,4.0,75,0.00,,,0.00,Wunderground v.1.15,2013-02-26 18:10:00,
2013-02-26 13:16:00,43.7,36.3,30.28,SE,133,4.0,12.0,75,0.00,,,0.00,Wunderground v.1.15,2013-02-26 18:16:00,
2013-02-26 13:22:00,43.6,35.9,30.27,ENE,58,5.0,6.0,74,0.00,,,0.00,Wunderground v.1.15,2013-02-26 18:22:00,
2013-02-26 13:28:00,43.3,35.6,30.26,SSE,167,4.0,8.0,74,0.00,,,0.00,Wunderground v.1.15,2013-02-26 18:28:00,
2013-02-26 13:34:00,43.2,35.5,30.26,ESE,113,4.0,5.0,74,0.00,,,0.00,Wunderground v.1.15,2013-02-26 18:34:00,
2013-02-26 13:40:00,43.2,35.8,30.26,East,97,5.0,5.0,75,0.00,,,0.00,Wunderground v.1.15,2013-02-26 18:40:00,
2013-02-26 13:46:00,43.3,35.6,30.26,East,101,4.0,5.0,74,0.00,,,0.00,Wunderground v.1.15,2013-02-26 18:46:00,
2013-02-26 13:52:00,43.1,35.0,30.26,SE,132,4.0,8.0,73,0.00,,,0.00,Wunderground v.1.15,2013-02-26 18:52:00,
2013-02-26 13:58:00,43.0,34.9,30.26,ENE,65,5.0,8.0,73,0.00,,,0.00,Wunderground v.1.15,2013-02-26 18:58:00,
2013-02-26 14:04:00,42.9,35.2,30.26,SE,138,5.0,6.0,74,0.00,,,0.00,Wunderground v.1.15,2013-02-26 19:04:00,
2013-02-26 14:10:00,43.0,34.9,30.27,SE,145,6.0,8.0,73,0.00,,,0.00,Wunderground v.1.15,2013-02-26 19:10:00,
2013-02-26 14:16:00,42.9,34.8,30.26,East,90,6.0,9.0,73,0.00,,,0.00,Wunderground v.1.15,2013-02-26 19:16:00,
2013-02-26 14:22:00,42.9,35.2,30.26,ESE,119,4.0,5.0,74,0.00,,,0.00,Wunderground v.1.15,2013-02-26 19:22:00,
2013-02-26 14:28:00,43.1,35.4,30.26,East,86,3.0,5.0,74,0.00,,,0.00,Wunderground v.1.15,2013-02-26 19:28:00,
2013-02-26 14:34:00,42.8,34.7,30.25,ESE,123,4.0,5.0,73,0.00,,,0.00,Wunderground v.1.15,2013-02-26 19:34:00,
2013-02-26 14:40:00,42.6,34.5,30.25,SE,138,5.0,5.0,73,0.00,,,0.00,Wunderground v.1.15,2013-02-26 19:40:00,
2013-02-26 14:46:00,42.5,34.8,30.24,ENE,64,5.0,5.0,74,0.00,,,0.00,Wunderground v.1.15,2013-02-26 19:46:00,
2013-02-26 14:52:00,42.5,34.8,30.23,ESE,108,4.0,4.0,74,0.00,,,0.00,Wunderground v.1.15,2013-02-26 19:52:00,
2013-02-26 14:58:00,42.3,34.9,30.23,SE,140,5.0,10.0,75,0.00,,,0.00,Wunderground v.1.15,2013-02-26 19:58:00,
2013-02-26 15:04:00,42.2,34.5,30.23,ESE,117,5.0,5.0,74,0.00,,,0.00,Wunderground v.1.15,2013-02-26 20:04:00,
2013-02-26 15:10:00,42.2,34.8,30.23,ESE,103,4.0,6.0,75,0.00,,,0.00,Wunderground v.1.15,2013-02-26 20:10:00,
2013-02-26 15:16:00,42.1,35.1,30.22,South,171,5.0,9.0,76,0.00,,,0.00,Wunderground v.1.15,2013-02-26 20:16:00,
2013-02-26 15:22:00,42.1,35.4,30.21,ESE,116,5.0,5.0,77,0.00,,,0.00,Wunderground v.1.15,2013-02-26 20:22:00,
2013-02-26 15:28:00,42.1,35.7,30.21,East,81,4.0,7.0,78,0.00,,,0.00,Wunderground v.1.15,2013-02-26 20:28:00,
2013-02-26 15:34:00,42.0,35.6,30.21,SE,127,5.0,9.0,78,0.00,,,0.00,Wunderground v.1.15,2013-02-26 20:34:00,
2013-02-26 15:40:00,41.9,35.5,30.21,SE,134,4.0,5.0,78,0.00,,,0.00,Wunderground v.1.15,2013-02-26 20:40:00,
2013-02-26 15:46:00,41.8,35.8,30.21,SE,128,4.0,7.0,79,0.00,,,0.00,Wunderground v.1.15,2013-02-26 20:46:00,
2013-02-26 15:52:00,41.7,35.7,30.22,South,188,4.0,5.0,79,0.00,,,0.00,Wunderground v.1.15,2013-02-26 20:52:00,
2013-02-26 15:58:00,41.6,35.6,30.22,SE,127,4.0,6.0,79,0.00,,,0.00,Wunderground v.1.15,2013-02-26 20:58:00,
2013-02-26 16:04:00,41.5,35.5,30.21,East,101,4.0,9.0,79,0.00,,,0.00,Wunderground v.1.15,2013-02-26 21:04:00,
2013-02-26 16:10:00,41.4,35.4,30.20,NNE,30,4.0,7.0,79,0.00,,,0.00,Wunderground v.1.15,2013-02-26 21:10:00,
2013-02-26 16:16:00,41.3,35.3,30.20,ESE,114,5.0,7.0,79,0.00,,,0.00,Wunderground v.1.15,2013-02-26 21:16:00,
2013-02-26 16:22:00,41.2,35.2,30.19,SE,134,4.0,5.0,79,0.00,,,0.00,Wunderground v.1.15,2013-02-26 21:22:00,
2013-02-26 16:28:00,41.1,35.1,30.20,NNE,19,5.0,7.0,79,0.00,,,0.00,Wunderground v.1.15,2013-02-26 21:28:00,
2013-02-26 16:34:00,41.0,35.0,30.20,ENE,74,6.0,6.0,79,0.00,,,0.00,Wunderground v.1.15,2013-02-26 21:34:00,
2013-02-26 16:40:00,41.0,35.0,30.19,ESE,103,6.0,7.0,79,0.00,,,0.00,Wunderground v.1.15,2013-02-26 21:40:00,
2013-02-26 16:46:00,40.9,34.9,30.19,SE,138,5.0,7.0,79,0.00,,,0.00,Wunderground v.1.15,2013-02-26 21:46:00,
2013-02-26 16:52:00,40.9,35.2,30.18,NE,53,4.0,5.0,80,0.00,,,0.00,Wunderground v.1.15,2013-02-26 21:52:00,
2013-02-26 16:58:00,40.7,34.7,30.18,East,96,5.0,11.0,79,0.00,,,0.00,Wunderground v.1.15,2013-02-26 21:58:00,
2013-02-26 17:04:00,40.7,35.0,30.18,ESE,105,6.0,6.0,80,0.00,,,0.00,Wunderground v.1.15,2013-02-26 22:04:00,
2013-02-26 17:10:00,40.7,35.0,30.18,NE,53,5.0,8.0,80,0.00,,,0.00,Wunderground v.1.15,2013-02-26 22:10:00,
2013-02-26 17:16:00,40.6,34.9,30.17,ENE,71,5.0,8.0,80,0.00,,,0.00,Wunderground v.1.15,2013-02-26 22:16:00,
2013-02-26 17:22:00,40.6,35.2,30.17,East,80,6.0,8.0,81,0.00,,,0.00,Wunderground v.1.15,2013-02-26 22:22:00,
2013-02-26 17:28:00,40.6,34.9,30.17,East,83,6.0,8.0,80,0.00,,,0.00,Wunderground v.1.15,2013-02-26 22:28:00,
2013-02-26 17:34:00,40.5,35.1,30.17,East,100,4.0,8.0,81,0.00,,,0.00,Wunderground v.1.15,2013-02-26 22:34:00,
2013-02-26 17:40:00,40.5,35.1,30.18,ESE,116,4.0,4.0,81,0.00,,,0.00,Wunderground v.1.15,2013-02-26 22:40:00,
2013-02-26 17:46:00,40.5,35.4,30.17,ENE,69,4.0,4.0,82,0.00,,,0.00,Wunderground v.1.15,2013-02-26 22:46:00,
2013-02-26 17:52:00,40.4,35.0,30.17,ENE,64,4.0,4.0,81,0.00,,,0.00,Wunderground v.1.15,2013-02-26 22:52:00,
2013-02-26 17:58:00,40.4,34.7,30.16,ESE,104,6.0,8.0,80,0.00,,,0.00,Wunderground v.1.15,2013-02-26 22:58:00,
2013-02-26 18:04:00,40.4,34.7,30.16,East,95,6.0,6.0,80,0.00,,,0.00,Wunderground v.1.15,2013-02-26 23:04:00,
2013-02-26 18:10:00,40.4,34.7,30.16,SE,127,5.0,7.0,80,0.00,,,0.00,Wunderground v.1.15,2013-02-26 23:10:00,
2013-02-26 18:16:00,40.4,34.7,30.16,East,87,5.0,7.0,80,0.00,,,0.00,Wunderground v.1.15,2013-02-26 23:16:00,
2013-02-26 18:22:00,40.4,35.0,30.15,ENE,77,5.0,6.0,81,0.00,,,0.00,Wunderground v.1.15,2013-02-26 23:22:00,
2013-02-26 18:28:00,40.4,35.0,30.16,ESE,112,5.0,6.0,81,0.00,,,0.00,Wunderground v.1.15,2013-02-26 23:28:00,
2013-02-26 18:34:00,40.4,35.0,30.15,SE,126,4.0,6.0,81,0.00,,,0.00,Wunderground v.1.15,2013-02-26 23:34:00,
2013-02-26 18:40:00,40.5,35.4,30.15,SSE,148,4.0,4.0,82,0.00,,,0.00,Wunderground v.1.15,2013-02-26 23:40:00,
2013-02-26 18:46:00,40.4,35.3,30.15,NE,49,5.0,7.0,82,0.00,,,0.00,Wunderground v.1.15,2013-02-26 23:46:00,
2013-02-26 18:52:00,40.3,35.5,30.14,East,85,5.0,7.0,83,0.00,,,0.00,Wunderground v.1.15,2013-02-26 23:52:00,
2013-02-26 18:58:00,40.1,35.7,30.14,SSW,213,5.0,8.0,84,0.00,,,0.00,Wunderground v.1.15,2013-02-26 23:58:00,
2013-02-26 19:04:00,39.9,35.8,30.14,ENE,78,5.0,5.0,85,0.00,,,0.00,Wunderground v.1.15,2013-02-27 00:04:00,
2013-02-26 19:10:00,39.8,36.0,30.14,NE,47,5.0,7.0,86,0.00,,,0.01,Wunderground v.1.15,2013-02-27 00:10:00,
2013-02-26 19:16:00,39.7,35.9,30.13,NNE,30,4.0,7.0,86,0.00,,,0.01,Wunderground v.1.15,2013-02-27 00:16:00,
2013-02-26 19:22:00,39.6,35.8,30.13,East,81,4.0,8.0,86,0.00,,,0.01,Wunderground v.1.15,2013-02-27 00:22:00,
2013-02-26 19:28:00,39.5,35.7,30.12,ENE,71,4.0,8.0,86,0.00,,,0.01,Wunderground v.1.15,2013-02-27 00:28:00,
2013-02-26 19:34:00,39.5,35.7,30.12,East,95,5.0,6.0,86,0.00,,,0.01,Wunderground v.1.15,2013-02-27 00:34:00,
2013-02-26 19:40:00,39.5,35.4,30.11,ENE,64,5.0,7.0,85,0.00,,,0.01,Wunderground v.1.15,2013-02-27 00:40:00,
2013-02-26 19:46:00,39.6,35.2,30.12,ENE,59,5.0,9.0,84,0.00,,,0.01,Wunderground v.1.15,2013-02-27 00:46:00,
2013-02-26 19:52:00,39.6,34.9,30.11,East,91,5.0,5.0,83,0.00,,,0.01,Wunderground v.1.15,2013-02-27 00:52:00,
2013-02-26 19:58:00,39.7,34.7,30.11,SE,138,5.0,6.0,82,0.00,,,0.01,Wunderground v.1.15,2013-02-27 00:58:00,
2013-02-26 20:04:00,39.8,35.1,30.10,ESE,117,5.0,7.0,83,0.00,,,0.01,Wunderground v.1.15,2013-02-27 01:04:00,
2013-02-26 20:10:00,39.8,34.8,30.10,ESE,116,5.0,5.0,82,0.00,,,0.01,Wunderground v.1.15,2013-02-27 01:10:00,
2013-02-26 20:16:00,39.8,34.4,30.09,East,92,5.0,5.0,81,0.00,,,0.01,Wunderground v.1.15,2013-02-27 01:16:00,
2013-02-26 20:22:00,39.9,34.5,30.08,ENE,67,5.0,6.0,81,0.00,,,0.01,Wunderground v.1.15,2013-02-27 01:22:00,
2013-02-26 20:28:00,39.8,34.8,30.07,ENE,58,5.0,6.0,82,0.00,,,0.01,Wunderground v.1.15,2013-02-27 01:28:00,
2013-02-26 20:34:00,39.9,34.9,30.07,NE,50,6.0,7.0,82,0.00,,,0.01,Wunderground v.1.15,2013-02-27 01:34:00,
2013-02-26 20:40:00,40.0,35.3,30.06,ENE,57,5.0,5.0,83,0.00,,,0.01,Wunderground v.1.15,2013-02-27 01:40:00,
2013-02-26 20:46:00,39.9,35.5,30.06,East,88,5.0,8.0,84,0.00,,,0.01,Wunderground v.1.15,2013-02-27 01:46:00,
2013-02-26 20:52:00,39.7,35.6,30.05,NE,51,6.0,12.0,85,0.00,,,0.01,Wunderground v.1.15,2013-02-27 01:52:00,
2013-02-26 20:58:00,39.6,36.0,30.04,ENE,74,5.0,12.0,87,0.00,,,0.02,Wunderground v.1.15,2013-02-27 01:58:00,
2013-02-26 21:04:00,39.5,36.0,30.04,East,98,5.0,10.0,87,0.00,,,0.02,Wunderground v.1.15,2013-02-27 02:04:00,
2013-02-26 21:10:00,39.3,36.0,30.03,NNE,24,6.0,6.0,88,0.00,,,0.02,Wunderground v.1.15,2013-02-27 02:10:00,
2013-02-26 21:16:00,39.3,36.3,30.03,NE,41,6.0,6.0,89,0.00,,,0.02,Wunderground v.1.15,2013-02-27 02:16:00,
2013-02-26 21:22:00,39.1,36.4,30.03,East,94,6.0,7.0,90,0.00,,,0.03,Wunderground v.1.15,2013-02-27 02:22:00,
2013-02-26 21:28:00,39.0,36.3,30.03,ENE,74,6.0,7.0,90,0.00,,,0.03,Wunderground v.1.15,2013-02-27 02:28:00,
2013-02-26 21:34:00,38.9,36.5,30.02,East,95,5.0,6.0,91,0.00,,,0.03,Wunderground v.1.15,2013-02-27 02:34:00,
2013-02-26 21:40:00,38.9,36.5,30.03,East,94,6.0,8.0,91,0.00,,,0.03,Wunderground v.1.15,2013-02-27 02:40:00,
2013-02-26 21:46:00,39.0,36.6,30.03,East,98,6.0,9.0,91,0.00,,,0.04,Wunderground v.1.15,2013-02-27 02:46:00,
2013-02-26 21:52:00,38.9,36.5,30.02,ESE,108,6.0,6.0,91,0.00,,,0.04,Wunderground v.1.15,2013-02-27 02:52:00,
2013-02-26 21:58:00,38.9,36.8,30.02,ENE,65,6.0,7.0,92,0.05,,,0.05,Wunderground v.1.15,2013-02-27 02:58:00,
2013-02-26 22:04:00,38.8,36.7,30.02,SE,140,5.0,7.0,92,0.09,,,0.06,Wunderground v.1.15,2013-02-27 03:04:00,
2013-02-26 22:10:00,38.8,36.7,30.00,ENE,69,5.0,5.0,92,0.18,,,0.08,Wunderground v.1.15,2013-02-27 03:10:00,
2013-02-26 22:16:00,38.8,36.9,29.99,NE,54,5.0,8.0,93,0.15,,,0.09,Wunderground v.1.15,2013-02-27 03:16:00,
2013-02-26 22:22:00,38.8,36.9,29.98,East,91,6.0,12.0,93,0.10,,,0.10,Wunderground v.1.15,2013-02-27 03:22:00,
2013-02-26 22:28:00,38.8,36.9,29.97,ENE,67,6.0,12.0,93,0.06,,,0.10,Wunderground v.1.15,2013-02-27 03:28:00,
2013-02-26 22:34:00,38.9,37.3,29.97,NE,42,6.0,11.0,94,0.04,,,0.10,Wunderground v.1.15,2013-02-27 03:34:00,
2013-02-26 22:40:00,39.0,37.1,29.96,East,85,6.0,8.0,93,0.00,,,0.10,Wunderground v.1.15,2013-02-27 03:40:00,
2013-02-26 22:46:00,39.0,37.4,29.96,East,92,7.0,8.0,94,0.00,,,0.10,Wunderground v.1.15,2013-02-27 03:46:00,
2013-02-26 22:52:00,39.1,37.5,29.95,NE,53,6.0,6.0,94,0.00,,,0.10,Wunderground v.1.15,2013-02-27 03:52:00,
2013-02-26 22:58:00,39.1,37.5,29.94,ENE,74,6.0,8.0,94,0.00,,,0.10,Wunderground v.1.15,2013-02-27 03:58:00,
2013-02-26 23:04:00,39.1,37.5,29.93,East,94,7.0,11.0,94,0.00,,,0.10,Wunderground v.1.15,2013-02-27 04:04:00,
2013-02-26 23:10:00,39.2,37.6,29.92,ENE,68,7.0,7.0,94,0.00,,,0.10,Wunderground v.1.15,2013-02-27 04:10:00,
2013-02-26 23:16:00,39.3,37.7,29.92,East,84,7.0,7.0,94,0.00,,,0.11,Wunderground v.1.15,2013-02-27 04:16:00,
2013-02-26 23:22:00,39.4,37.8,29.92,NE,46,7.0,9.0,94,0.00,,,0.11,Wunderground v.1.15,2013-02-27 04:22:00,
2013-02-26 23:28:00,39.4,37.8,29.92,East,98,7.0,9.0,94,0.21,,,0.13,Wunderground v.1.15,2013-02-27 04:28:00,
2013-02-26 23:34:00,39.5,37.9,29.91,NE,48,7.0,7.0,94,0.34,,,0.15,Wunderground v.1.15,2013-02-27 04:34:00,
2013-02-26 23:40:00,39.5,37.9,29.89,East,95,7.0,7.0,94,0.16,,,0.17,Wunderground v.1.15,2013-02-27 04:40:00,
2013-02-26 23:46:00,39.6,38.3,29.88,ENE,74,7.0,9.0,95,0.14,,,0.18,Wunderground v.1.15,2013-02-27 04:46:00,
2013-02-26 23:52:00,39.6,38.3,29.89,East,87,7.0,13.0,95,0.08,,,0.19,Wunderground v.1.15,2013-02-27 04:52:00,
2013-02-26 23:58:00,39.7,38.4,29.90,ENE,65,7.0,13.0,95,0.18,,,0.02,Wunderground v.1.15,2013-02-27 04:58:00,